Time;durP1;ratioP1;P1;durP2;ratioP2;P2;SDS_P1;SDS_P2;PMS_P1;PMS_P2;Temp;Humidity;BMP_temperature;BMP_pressure;BME280_temperature;BME280_humidity;BME280_pressure;Samples;Min_cycle;Max_cycle;Signal;HPM_P1;HPM_P2
2022/07/03 00:01:00;;;;;;;1.93;1.63;;;;;25.00;100639.00;;;;2078897;28;20225;-48
2022/07/03 00:02:01;;;;;;;3.00;1.90;;;;;25.00;100630.00;;;;2078895;28;20217;-49
2022/07/03 00:03:01;;;;;;;3.40;1.67;;;;;25.00;100633.00;;;;2079183;28;20482;-49
2022/07/03 00:04:01;;;;;;;1.60;1.50;;;;;25.00;100632.00;;;;2079090;28;20213;-49
2022/07/03 00:05:02;;;;;;;1.53;1.40;;;;;25.00;100635.00;;;;2078658;28;20213;-49
2022/07/03 00:06:02;;;;;;;2.77;1.70;;;;;25.00;100662.00;;;;2078342;28;20648;-49
2022/07/03 00:07:02;;;;;;;1.83;1.40;;;;;25.00;100638.00;;;;2070084;28;20210;-49
2022/07/03 00:08:03;;;;;;;2.80;1.53;;;;;25.00;100622.00;;;;2077307;28;20716;-49
2022/07/03 00:09:04;;;;;;;4.27;1.50;;;;;25.00;100626.00;;;;2078225;28;20360;-50
2022/07/03 00:10:05;;;;;;;3.40;1.60;;;;;25.00;100638.00;;;;2078116;28;20346;-49
2022/07/03 00:11:05;;;;;;;3.00;1.60;;;;;25.00;100639.00;;;;2078865;28;20453;-48
2022/07/03 00:12:06;;;;;;;3.30;1.67;;;;;25.00;100629.00;;;;2078933;28;20205;-49
2022/07/03 00:13:06;;;;;;;5.23;1.77;;;;;25.00;100638.00;;;;2078903;28;20729;-48
2022/07/03 00:14:07;;;;;;;2.60;1.50;;;;;25.00;100643.00;;;;2078952;28;20251;-48
2022/07/03 00:15:07;;;;;;;1.73;1.63;;;;;25.00;100612.00;;;;2078542;28;20214;-49
2022/07/03 00:16:08;;;;;;;2.63;1.40;;;;;25.00;100636.00;;;;2078244;28;20580;-48
2022/07/03 00:17:08;;;;;;;1.93;1.30;;;;;25.00;100637.00;;;;2078345;28;20208;-49
2022/07/03 00:18:08;;;;;;;2.53;1.50;;;;;25.00;100640.00;;;;2077995;28;20674;-49
2022/07/03 00:19:09;;;;;;;1.40;1.20;;;;;25.00;100643.00;;;;2078881;28;20698;-48
2022/07/03 00:20:09;;;;;;;1.67;1.40;;;;;25.00;100636.00;;;;2078649;28;21002;-49
2022/07/03 00:21:11;;;;;;;1.90;1.37;;;;;25.00;100637.00;;;;2078750;28;20802;-48
2022/07/03 00:22:12;;;;;;;1.75;1.63;;;;;25.00;100629.00;;;;2078311;28;20238;-48
2022/07/03 00:23:15;;;;;;;2.77;1.50;;;;;25.00;100636.00;;;;2077792;28;20218;-49
2022/07/03 00:24:23;;;;;;;2.75;1.58;;;;;25.00;100636.00;;;;2078569;28;20522;-48
2022/07/03 00:25:23;;;;;;;1.52;1.30;;;;;25.00;100610.00;;;;2078091;28;20228;-48
2022/07/03 00:26:24;;;;;;;1.27;1.10;;;;;25.00;100637.00;;;;2070132;28;20589;-48
2022/07/03 00:27:24;;;;;;;2.87;1.50;;;;;25.00;100630.00;;;;2077160;28;20589;-48
2022/07/03 00:28:25;;;;;;;1.60;1.40;;;;;25.00;100635.00;;;;2078902;28;20296;-49
2022/07/03 00:29:29;;;;;;;1.60;1.40;;;;;25.00;100634.00;;;;2077880;28;20260;-48
2022/07/03 00:30:29;;;;;;;4.40;1.60;;;;;25.00;100644.00;;;;2070451;28;20237;-49
2022/07/03 00:31:31;;;;;;;1.63;1.27;;;;;25.00;100554.00;;;;2078159;28;20669;-49
2022/07/03 00:32:32;;;;;;;2.50;1.40;;;;;25.00;100639.00;;;;2078517;28;20213;-49
2022/07/03 00:33:33;;;;;;;2.10;1.40;;;;;25.00;100639.00;;;;2077311;28;20726;-49
2022/07/03 00:34:33;;;;;;;3.00;1.98;;;;;25.00;100644.00;;;;2078662;28;20708;-50
2022/07/03 00:35:35;;;;;;;2.53;1.67;;;;;25.00;100641.00;;;;2069864;28;20230;-49
2022/07/03 00:36:36;;;;;;;2.30;1.58;;;;;25.00;100641.00;;;;2070137;28;20233;-49
2022/07/03 00:37:36;;;;;;;1.98;1.48;;;;;25.00;100637.00;;;;2077783;28;20221;-49
2022/07/03 00:38:37;;;;;;;2.33;1.33;;;;;25.00;100641.00;;;;2078792;28;20294;-49
2022/07/03 00:39:39;;;;;;;1.43;1.00;;;;;25.00;100645.00;;;;2077877;28;20340;-49
2022/07/03 00:40:40;;;;;;;2.78;1.52;;;;;25.00;100636.00;;;;2077932;28;20214;-49
2022/07/03 00:41:40;;;;;;;1.73;1.17;;;;;25.00;100641.00;;;;2078755;28;20220;-48
2022/07/03 00:42:40;;;;;;;3.47;1.50;;;;;25.00;100644.00;;;;2069918;28;20214;-49
2022/07/03 00:43:41;;;;;;;1.90;1.37;;;;;25.00;100648.00;;;;2069916;28;20269;-49
2022/07/03 00:44:46;;;;;;;2.90;1.50;;;;;25.00;100646.00;;;;2077985;28;20315;-49
2022/07/03 00:45:47;;;;;;;2.63;1.80;;;;;25.00;100645.00;;;;2078005;28;20209;-49
2022/07/03 00:46:48;;;;;;;1.58;1.40;;;;;24.90;100639.00;;;;2078732;28;20240;-49
2022/07/03 00:47:48;;;;;;;1.90;1.53;;;;;24.90;100645.00;;;;2068785;28;20214;-50
2022/07/03 00:48:49;;;;;;;4.10;1.70;;;;;25.00;100639.00;;;;2069563;28;20210;-49
2022/07/03 00:49:51;;;;;;;3.00;1.50;;;;;25.00;100644.00;;;;2077869;28;21099;-49
2022/07/03 00:50:51;;;;;;;2.78;1.55;;;;;25.00;100647.00;;;;2077823;28;20221;-49
2022/07/03 00:51:52;;;;;;;1.60;1.40;;;;;25.00;100643.00;;;;2078368;28;20225;-49
2022/07/03 00:52:53;;;;;;;3.23;1.47;;;;;24.90;100641.00;;;;2078677;28;20237;-50
2022/07/03 00:53:57;;;;;;;1.50;1.30;;;;;25.00;100648.00;;;;2069815;28;22611;-49
2022/07/03 00:54:58;;;;;;;1.75;1.38;;;;;25.00;100642.00;;;;2070191;28;20589;-49
2022/07/03 00:55:58;;;;;;;2.10;1.30;;;;;25.00;100639.00;;;;2078500;28;20225;-49
2022/07/03 00:56:59;;;;;;;1.30;1.00;;;;;25.00;100639.00;;;;2069701;28;20289;-49
2022/07/03 00:57:59;;;;;;;2.37;1.80;;;;;25.00;100640.00;;;;2068631;28;20214;-49
2022/07/03 00:59:00;;;;;;;2.23;1.40;;;;;24.90;100628.00;;;;2069781;28;20237;-49
2022/07/03 01:00:01;;;;;;;1.93;1.40;;;;;24.90;100628.00;;;;2078077;28;20223;-49
2022/07/03 01:01:02;;;;;;;4.27;1.67;;;;;24.90;100633.00;;;;2066120;28;20495;-49
2022/07/03 01:02:04;;;;;;;2.37;1.37;;;;;24.90;100629.00;;;;2061275;28;20230;-49
2022/07/03 01:03:09;;;;;;;2.63;1.35;;;;;24.90;100626.00;;;;2069674;28;20289;-49
2022/07/03 01:04:12;;;;;;;1.60;1.27;;;;;24.90;100626.00;;;;2070183;28;21034;-48
2022/07/03 01:05:15;;;;;;;3.03;1.50;;;;;24.90;100624.00;;;;2077873;28;20217;-49
2022/07/03 01:06:16;;;;;;;2.97;1.48;;;;;24.90;100622.00;;;;2078543;28;20217;-49
2022/07/03 01:07:36;;;;;;;1.70;1.57;;;;;24.90;100623.00;;;;2076665;28;20244;-49
2022/07/03 01:08:50;;;;;;;3.08;1.45;;;;;24.90;100618.00;;;;2071405;28;20222;-49
2022/07/03 01:10:09;;;;;;;2.15;1.30;;;;;24.90;100613.00;;;;2077578;28;20647;-49
2022/07/03 01:11:25;;;;;;;2.40;1.50;;;;;24.90;100621.00;;;;2078174;28;20414;-49
2022/07/03 01:12:55;;;;;;;4.97;2.28;;;;;24.90;100617.00;;;;2077644;28;20209;-49
2022/07/03 01:14:22;;;;;;;1.83;1.52;;;;;24.90;100607.00;;;;2078050;28;20241;-49
2022/07/03 01:15:30;;;;;;;2.00;1.30;;;;;24.90;100610.00;;;;2077447;28;20222;-49
2022/07/03 01:16:34;;;;;;;3.85;1.88;;;;;24.90;100613.00;;;;2072234;28;20234;-50
2022/07/03 01:17:39;;;;;;;1.73;1.40;;;;;24.90;100595.00;;;;2068793;28;20228;-49
2022/07/03 01:18:49;;;;;;;1.95;1.75;;;;;24.90;100610.00;;;;2069920;28;20246;-50
2022/07/03 01:19:49;;;;;;;2.00;1.50;;;;;24.90;100609.00;;;;2077808;28;20213;-49
2022/07/03 01:20:59;;;;;;;2.90;1.73;;;;;24.90;100607.00;;;;2078510;28;20214;-49
2022/07/03 01:22:11;;;;;;;2.35;1.60;;;;;24.90;100587.00;;;;2077567;28;20476;-50
2022/07/03 01:23:29;;;;;;;2.00;1.60;;;;;24.90;100614.00;;;;2071317;28;20216;-50
2022/07/03 01:24:39;;;;;;;2.10;1.58;;;;;24.90;100609.00;;;;2072278;28;20228;-49
2022/07/03 01:25:44;;;;;;;2.75;1.60;;;;;24.90;100601.00;;;;2052845;28;20209;-49
2022/07/03 01:26:46;;;;;;;2.05;1.50;;;;;24.90;100606.00;;;;2070598;28;20222;-49
2022/07/03 01:28:08;;;;;;;2.25;1.50;;;;;24.90;100606.00;;;;2077431;28;20213;-49
2022/07/03 01:29:12;;;;;;;2.17;1.70;;;;;24.90;100600.00;;;;2077931;28;20925;-50
2022/07/03 01:30:13;;;;;;;1.77;1.38;;;;;24.90;100601.00;;;;2062046;28;20212;-49
2022/07/03 01:31:18;;;;;;;4.78;1.80;;;;;24.90;100603.00;;;;2061946;28;20773;-49
2022/07/03 01:32:19;;;;;;;2.13;1.20;;;;;24.90;100600.00;;;;2069421;28;20218;-49
2022/07/03 01:33:24;;;;;;;2.27;1.40;;;;;24.90;100589.00;;;;2061677;28;20233;-49
2022/07/03 01:34:25;;;;;;;1.83;1.48;;;;;24.90;100605.00;;;;2059108;28;20457;-49
2022/07/03 01:35:38;;;;;;;2.78;1.65;;;;;24.90;100603.00;;;;2069538;28;20314;-49
2022/07/03 01:36:38;;;;;;;1.50;1.40;;;;;24.90;100607.00;;;;2070401;28;20699;-49
2022/07/03 01:37:39;;;;;;;3.20;1.67;;;;;24.90;100619.00;;;;2069429;28;20233;-49
2022/07/03 01:38:40;;;;;;;2.00;1.40;;;;;24.90;100600.00;;;;2070067;28;20340;-53
2022/07/03 01:39:41;;;;;;;2.20;1.57;;;;;24.90;100600.00;;;;2070165;28;20770;-51
2022/07/03 01:40:41;;;;;;;1.43;1.33;;;;;24.90;100599.00;;;;2068354;28;20210;-50
2022/07/03 01:41:43;;;;;;;1.73;1.53;;;;;24.80;100594.00;;;;2068955;28;20221;-50
2022/07/03 01:42:45;;;;;;;1.92;1.50;;;;;24.90;100604.00;;;;2061441;28;20591;-49
2022/07/03 01:43:48;;;;;;;1.90;1.50;;;;;24.90;100605.00;;;;2061830;28;20775;-50
2022/07/03 01:44:49;;;;;;;2.35;1.50;;;;;24.90;100598.00;;;;2070181;28;20689;-49
2022/07/03 01:45:49;;;;;;;2.57;1.60;;;;;24.90;100597.00;;;;2061452;28;20221;-49
2022/07/03 01:46:49;;;;;;;1.93;1.53;;;;;24.90;100573.00;;;;2061404;28;20215;-49
2022/07/03 01:47:50;;;;;;;1.73;1.47;;;;;24.90;100591.00;;;;2068665;28;20233;-49
2022/07/03 01:48:50;;;;;;;1.70;1.53;;;;;24.90;100597.00;;;;2061609;28;20218;-49
2022/07/03 01:49:50;;;;;;;2.03;1.40;;;;;24.80;100600.00;;;;2053515;28;20212;-49
2022/07/03 01:50:51;;;;;;;1.60;1.40;;;;;24.80;100598.00;;;;2052191;28;20285;-49
2022/07/03 01:51:51;;;;;;;2.50;1.77;;;;;24.80;100588.00;;;;2069318;28;20242;-49
2022/07/03 01:52:52;;;;;;;2.40;1.63;;;;;24.80;100596.00;;;;2061403;28;20290;-49
2022/07/03 01:53:52;;;;;;;1.77;1.33;;;;;24.80;100590.00;;;;2053326;28;20258;-50
2022/07/03 01:54:53;;;;;;;3.57;1.63;;;;;24.80;100592.00;;;;2061076;28;20218;-50
2022/07/03 01:55:57;;;;;;;1.53;1.40;;;;;24.80;100583.00;;;;2069254;28;20229;-49
2022/07/03 01:56:58;;;;;;;1.85;1.67;;;;;24.80;100576.00;;;;2071502;28;20578;-49
2022/07/03 01:57:58;;;;;;;2.60;1.70;;;;;24.80;100596.00;;;;2068710;28;20245;-49
2022/07/03 01:58:59;;;;;;;3.20;1.60;;;;;24.80;100590.00;;;;2069608;28;21301;-49
2022/07/03 01:59:59;;;;;;;1.50;1.33;;;;;24.80;100550.00;;;;2078244;28;20244;-49
2022/07/03 02:01:06;;;;;;;2.40;1.90;;;;;24.80;100592.00;;;;2077726;28;20333;-49
2022/07/03 02:02:28;;;;;;;2.78;1.75;;;;;24.80;100596.00;;;;2070300;28;20214;-48
2022/07/03 02:03:30;;;;;;;1.23;1.10;;;;;24.80;100588.00;;;;2064031;28;20214;-49
2022/07/03 02:04:54;;;;;;;1.58;1.48;;;;;24.80;100589.00;;;;2062029;28;20246;-49
2022/07/03 02:06:28;;;;;;;1.50;1.40;;;;;24.80;100559.00;;;;2050788;28;20216;-49
2022/07/03 02:07:47;;;;;;;1.85;1.60;;;;;24.80;100579.00;;;;2067551;28;20215;-49
2022/07/03 02:09:06;;;;;;;2.08;1.55;;;;;24.80;100583.00;;;;2056817;28;20222;-49
2022/07/03 02:10:09;;;;;;;2.55;1.60;;;;;24.80;100587.00;;;;2070590;28;20228;-49
2022/07/03 02:11:17;;;;;;;2.50;1.77;;;;;24.80;100580.00;;;;2078142;28;20325;-49
2022/07/03 02:12:18;;;;;;;2.72;1.98;;;;;24.80;100595.00;;;;2077859;28;20217;-49
2022/07/03 02:13:24;;;;;;;2.93;1.43;;;;;24.80;100586.00;;;;2078375;28;20301;-49
2022/07/03 02:14:29;;;;;;;1.98;1.60;;;;;24.80;100586.00;;;;2062509;28;20211;-49
2022/07/03 02:15:31;;;;;;;1.80;1.40;;;;;24.80;100577.00;;;;2061930;28;20220;-49
2022/07/03 02:16:37;;;;;;;2.08;1.20;;;;;24.80;100577.00;;;;2069581;28;20253;-49
2022/07/03 02:17:39;;;;;;;1.42;1.23;;;;;24.80;100588.00;;;;2059926;28;20211;-49
2022/07/03 02:18:39;;;;;;;1.45;1.35;;;;;24.80;100579.00;;;;2068221;28;20285;-49
2022/07/03 02:20:00;;;;;;;1.73;1.60;;;;;24.80;100587.00;;;;2068923;28;20218;-49
2022/07/03 02:21:10;;;;;;;2.35;1.35;;;;;24.80;100578.00;;;;2072269;28;20210;-49
2022/07/03 02:22:11;;;;;;;1.90;1.45;;;;;24.80;100596.00;;;;2078784;28;20688;-49
2022/07/03 02:23:11;;;;;;;2.10;1.53;;;;;24.80;100579.00;;;;2079012;28;20218;-49
2022/07/03 02:24:22;;;;;;;2.63;1.67;;;;;24.80;100588.00;;;;2079527;28;20689;-49
2022/07/03 02:25:23;;;;;;;1.65;1.27;;;;;24.80;100583.00;;;;2079460;28;20593;-49
2022/07/03 02:26:29;;;;;;;2.08;1.60;;;;;24.80;100583.00;;;;2079764;28;20677;-49
2022/07/03 02:27:33;;;;;;;1.35;1.20;;;;;24.80;100588.00;;;;2058643;28;20282;-49
2022/07/03 02:28:56;;;;;;;2.70;1.65;;;;;24.80;100593.00;;;;2055567;28;20219;-49
2022/07/03 02:30:01;;;;;;;3.03;1.70;;;;;24.80;100581.00;;;;2065536;28;20268;-49
2022/07/03 02:31:03;;;;;;;1.73;1.50;;;;;24.80;100588.00;;;;2070923;28;20297;-49
2022/07/03 02:32:04;;;;;;;2.47;1.30;;;;;24.80;100590.00;;;;2071152;28;20354;-50
2022/07/03 02:33:04;;;;;;;2.30;1.50;;;;;24.80;100574.00;;;;2062763;28;20278;-49
2022/07/03 02:34:04;;;;;;;1.73;1.60;;;;;24.80;100583.00;;;;2054569;28;20223;-49
2022/07/03 02:35:05;;;;;;;2.73;1.60;;;;;24.80;100591.00;;;;2062283;28;20246;-49
2022/07/03 02:36:06;;;;;;;2.53;1.63;;;;;24.80;100582.00;;;;2069589;28;20213;-49
2022/07/03 02:37:15;;;;;;;2.30;1.40;;;;;24.80;100582.00;;;;2062315;28;20557;-49
2022/07/03 02:38:16;;;;;;;3.67;1.45;;;;;24.80;100581.00;;;;2063378;28;20215;-49
2022/07/03 02:39:26;;;;;;;1.52;1.42;;;;;24.80;100588.00;;;;2070557;28;20227;-49
2022/07/03 02:40:28;;;;;;;1.60;1.40;;;;;24.80;100582.00;;;;2062336;28;20210;-49
2022/07/03 02:41:37;;;;;;;2.88;1.45;;;;;24.80;100566.00;;;;2063223;28;20454;-49
2022/07/03 02:43:13;;;;;;;2.17;1.70;;;;;24.80;100577.00;;;;2070180;28;20284;-49
2022/07/03 02:44:25;;;;;;;2.50;1.80;;;;;24.70;100576.00;;;;2067698;28;20217;-49
2022/07/03 02:45:25;;;;;;;2.53;1.60;;;;;24.70;100574.00;;;;2070523;28;20208;-49
2022/07/03 02:46:49;;;;;;;1.47;1.30;;;;;24.70;100567.00;;;;2062762;28;20215;-49
2022/07/03 02:47:59;;;;;;;3.88;1.40;;;;;24.70;100569.00;;;;2067840;28;20213;-50
2022/07/03 02:49:07;;;;;;;2.47;1.70;;;;;24.70;100571.00;;;;2062627;28;20214;-49
2022/07/03 02:50:08;;;;;;;4.85;1.92;;;;;24.70;100570.00;;;;2064803;28;20207;-49
2022/07/03 02:51:16;;;;;;;4.18;1.80;;;;;24.70;100572.00;;;;2070469;28;20206;-50
2022/07/03 02:52:42;;;;;;;2.08;1.45;;;;;24.70;100571.00;;;;2054530;28;20717;-50
2022/07/03 02:53:51;;;;;;;2.20;2.00;;;;;24.70;100578.00;;;;2068625;28;20223;-49
2022/07/03 02:54:52;;;;;;;1.70;1.55;;;;;24.70;100576.00;;;;2075464;28;20245;-50
2022/07/03 02:56:05;;;;;;;2.67;1.60;;;;;24.70;100570.00;;;;2070804;28;20242;-49
2022/07/03 02:57:08;;;;;;;2.13;1.70;;;;;24.70;100578.00;;;;2070670;28;20964;-49
2022/07/03 02:58:25;;;;;;;2.53;1.90;;;;;24.70;100572.00;;;;2069894;28;20211;-49
2022/07/03 02:59:43;;;;;;;1.70;1.60;;;;;24.70;100571.00;;;;2070940;28;20217;-49
2022/07/03 03:00:57;;;;;;;2.10;1.83;;;;;24.70;100577.00;;;;2071190;28;20218;-50
2022/07/03 03:02:01;;;;;;;2.50;1.50;;;;;24.70;100570.00;;;;2070361;28;20259;-50
2022/07/03 03:03:01;;;;;;;2.20;1.80;;;;;24.70;100578.00;;;;2063995;28;20213;-49
2022/07/03 03:04:19;;;;;;;2.30;1.80;;;;;24.70;100576.00;;;;2062859;28;20233;-49
2022/07/03 03:05:46;;;;;;;2.42;1.80;;;;;24.70;100571.00;;;;2064880;28;20352;-49
2022/07/03 03:07:16;;;;;;;2.10;1.60;;;;;24.70;100576.00;;;;2067429;28;20222;-49
2022/07/03 03:08:35;;;;;;;1.77;1.55;;;;;24.70;100573.00;;;;2067339;28;20977;-50
2022/07/03 03:09:45;;;;;;;1.85;1.40;;;;;24.70;100574.00;;;;2067081;28;20222;-49
2022/07/03 03:10:47;;;;;;;1.73;1.50;;;;;24.70;100575.00;;;;2066053;28;20210;-49
2022/07/03 03:11:47;;;;;;;1.77;1.52;;;;;24.70;100569.00;;;;2070629;28;20218;-50
2022/07/03 03:12:53;;;;;;;3.10;1.77;;;;;24.70;100569.00;;;;2071090;28;20218;-49
2022/07/03 03:13:55;;;;;;;1.98;1.60;;;;;24.70;100575.00;;;;2060248;28;20246;-50
2022/07/03 03:15:00;;;;;;;2.55;1.65;;;;;24.70;100569.00;;;;2058256;28;20214;-50
2022/07/03 03:16:06;;;;;;;2.17;1.80;;;;;24.70;100570.00;;;;2078166;28;20210;-49
2022/07/03 03:17:06;;;;;;;1.95;1.38;;;;;24.70;100579.00;;;;2070922;28;20325;-49
2022/07/03 03:18:11;;;;;;;2.30;1.70;;;;;24.70;100572.00;;;;2070192;28;20233;-49
2022/07/03 03:19:12;;;;;;;2.08;1.88;;;;;24.70;100572.00;;;;2071308;28;20217;-49
2022/07/03 03:20:14;;;;;;;2.20;2.00;;;;;24.70;100577.00;;;;2070974;28;20244;-49
2022/07/03 03:21:17;;;;;;;2.05;1.55;;;;;24.70;100575.00;;;;2070455;28;20245;-49
2022/07/03 03:22:45;;;;;;;1.67;1.50;;;;;24.70;100571.00;;;;2069254;28;20305;-50
2022/07/03 03:23:48;;;;;;;1.88;1.65;;;;;24.70;100574.00;;;;2067126;28;20827;-49
2022/07/03 03:24:48;;;;;;;2.22;1.70;;;;;24.70;100574.00;;;;2070008;28;20236;-50
2022/07/03 03:25:50;;;;;;;2.40;2.07;;;;;24.60;100568.00;;;;2070370;28;21012;-50
2022/07/03 03:26:51;;;;;;;2.50;1.50;;;;;24.70;100576.00;;;;2070445;28;20237;-49
2022/07/03 03:27:52;;;;;;;4.17;1.50;;;;;24.70;100578.00;;;;2068992;28;20602;-49
2022/07/03 03:28:52;;;;;;;1.87;1.57;;;;;24.70;100575.00;;;;2070453;28;20214;-49
2022/07/03 03:29:52;;;;;;;2.60;1.90;;;;;24.70;100581.00;;;;2070392;28;20210;-50
2022/07/03 03:30:53;;;;;;;2.47;1.60;;;;;24.70;100575.00;;;;2062345;28;20211;-49
2022/07/03 03:31:53;;;;;;;1.80;1.50;;;;;24.70;100590.00;;;;2070047;28;20301;-49
2022/07/03 03:32:53;;;;;;;2.70;1.80;;;;;24.70;100577.00;;;;2069484;28;20211;-49
2022/07/03 03:33:54;;;;;;;2.03;1.53;;;;;24.70;100574.00;;;;2069413;28;20213;-49
2022/07/03 03:34:54;;;;;;;2.70;1.60;;;;;24.70;100590.00;;;;2069901;28;20226;-49
2022/07/03 03:35:54;;;;;;;1.73;1.63;;;;;24.70;100580.00;;;;2067176;28;20222;-49
2022/07/03 03:36:55;;;;;;;1.67;1.57;;;;;24.70;100577.00;;;;2070783;28;20412;-49
2022/07/03 03:37:55;;;;;;;1.90;1.60;;;;;24.70;100579.00;;;;2069106;28;20241;-50
2022/07/03 03:38:55;;;;;;;3.37;1.50;;;;;24.70;100576.00;;;;2069935;28;20210;-50
2022/07/03 03:39:56;;;;;;;1.50;1.37;;;;;24.70;100582.00;;;;2070633;28;20214;-50
2022/07/03 03:40:57;;;;;;;3.03;1.80;;;;;24.70;100582.00;;;;2070456;28;20241;-52
2022/07/03 03:41:57;;;;;;;2.33;1.77;;;;;24.70;100581.00;;;;2060388;28;20473;-51
2022/07/03 03:42:57;;;;;;;2.90;1.40;;;;;24.70;100589.00;;;;2061556;28;20235;-50
2022/07/03 03:43:58;;;;;;;2.77;1.60;;;;;24.70;100591.00;;;;2070212;28;20242;-52
2022/07/03 03:44:58;;;;;;;4.40;1.73;;;;;24.70;100574.00;;;;2070612;28;20269;-51
2022/07/03 03:45:59;;;;;;;1.87;1.50;;;;;24.70;100582.00;;;;2066529;28;20236;-52
2022/07/03 03:46:59;;;;;;;2.77;1.50;;;;;24.70;100588.00;;;;2070177;28;20296;-49
2022/07/03 03:47:59;;;;;;;2.17;1.80;;;;;24.60;100581.00;;;;2060169;28;20226;-50
2022/07/03 03:49:00;;;;;;;3.23;1.50;;;;;24.60;100578.00;;;;2061351;28;20218;-49
2022/07/03 03:50:01;;;;;;;3.83;1.83;;;;;24.60;100583.00;;;;2077681;28;20210;-49
2022/07/03 03:51:01;;;;;;;2.47;1.67;;;;;24.70;100577.00;;;;2061380;28;20285;-49
2022/07/03 03:52:02;;;;;;;2.27;1.50;;;;;24.60;100578.00;;;;2061336;28;20215;-49
2022/07/03 03:53:02;;;;;;;1.50;1.40;;;;;24.60;100583.00;;;;2074981;28;20567;-50
2022/07/03 03:54:04;;;;;;;1.90;1.40;;;;;24.60;100581.00;;;;2077626;28;20224;-50
2022/07/03 03:55:05;;;;;;;2.22;1.70;;;;;24.60;100583.00;;;;2077087;28;20589;-50
2022/07/03 03:56:10;;;;;;;2.55;1.73;;;;;24.60;100587.00;;;;2078149;28;20221;-49
2022/07/03 03:57:20;;;;;;;2.00;1.52;;;;;24.60;100587.00;;;;2078546;28;20316;-49
2022/07/03 03:58:21;;;;;;;3.70;1.80;;;;;24.60;100587.00;;;;2078471;28;20220;-50
2022/07/03 03:59:21;;;;;;;2.30;1.47;;;;;24.60;100582.00;;;;2077670;28;20712;-49
2022/07/03 04:00:21;;;;;;;2.20;1.70;;;;;24.60;100581.00;;;;2070096;28;20214;-49
2022/07/03 04:01:21;;;;;;;2.90;1.60;;;;;24.60;100589.00;;;;2070245;28;20250;-49
2022/07/03 04:02:22;;;;;;;2.27;1.60;;;;;24.60;100580.00;;;;2070653;28;20229;-49
2022/07/03 04:03:23;;;;;;;2.30;1.60;;;;;24.60;100578.00;;;;2071132;28;20225;-49
2022/07/03 04:04:24;;;;;;;2.92;1.90;;;;;24.60;100590.00;;;;2070975;28;20293;-50
2022/07/03 04:05:24;;;;;;;1.50;1.40;;;;;24.60;100583.00;;;;2070440;28;20693;-50
2022/07/03 04:06:24;;;;;;;3.10;1.60;;;;;24.60;100573.00;;;;2070692;28;20582;-49
2022/07/03 04:07:25;;;;;;;2.80;1.90;;;;;24.60;100579.00;;;;2065505;28;20810;-49
2022/07/03 04:08:25;;;;;;;1.97;1.73;;;;;24.60;100586.00;;;;2070192;28;20245;-49
2022/07/03 04:09:26;;;;;;;4.67;2.00;;;;;24.60;100579.00;;;;2070878;28;20214;-49
2022/07/03 04:10:26;;;;;;;1.60;1.47;;;;;24.60;100581.00;;;;2070965;28;20571;-49
2022/07/03 04:11:26;;;;;;;1.40;1.20;;;;;24.60;100583.00;;;;2075021;28;20217;-49
2022/07/03 04:12:27;;;;;;;1.90;1.70;;;;;24.60;100594.00;;;;2078696;28;20314;-49
2022/07/03 04:13:27;;;;;;;1.77;1.30;;;;;24.60;100581.00;;;;2078698;28;20685;-49
2022/07/03 04:14:27;;;;;;;1.90;1.70;;;;;24.60;100586.00;;;;2078445;28;20225;-49
2022/07/03 04:15:28;;;;;;;1.90;1.70;;;;;24.60;100591.00;;;;2078377;28;20221;-49
2022/07/03 04:16:28;;;;;;;2.47;1.50;;;;;24.60;100607.00;;;;2077920;28;20713;-48
2022/07/03 04:17:29;;;;;;;2.37;1.60;;;;;24.60;100587.00;;;;2071459;28;20709;-49
2022/07/03 04:18:29;;;;;;;4.57;1.87;;;;;24.60;100581.00;;;;2069704;28;20269;-49
2022/07/03 04:19:29;;;;;;;2.37;1.50;;;;;24.60;100590.00;;;;2070295;28;20222;-49
2022/07/03 04:20:30;;;;;;;3.07;1.47;;;;;24.60;100583.00;;;;2070027;28;20876;-49
2022/07/03 04:21:31;;;;;;;2.10;1.93;;;;;24.60;100590.00;;;;2069160;28;20229;-49
2022/07/03 04:22:31;;;;;;;1.60;1.50;;;;;24.60;100588.00;;;;2070630;28;20242;-48
2022/07/03 04:23:31;;;;;;;1.63;1.30;;;;;24.60;100583.00;;;;2070646;28;20218;-48
2022/07/03 04:24:32;;;;;;;2.03;1.60;;;;;24.60;100595.00;;;;2070890;28;20225;-48
2022/07/03 04:25:32;;;;;;;2.50;1.73;;;;;24.60;100592.00;;;;2070890;28;20222;-48
2022/07/03 04:26:32;;;;;;;2.17;1.50;;;;;24.60;100590.00;;;;2070599;28;20227;-48
2022/07/03 04:27:33;;;;;;;2.60;1.60;;;;;24.60;100598.00;;;;2063530;28;20218;-48
2022/07/03 04:28:33;;;;;;;2.10;1.47;;;;;24.60;100594.00;;;;2077881;28;20226;-51
2022/07/03 04:29:33;;;;;;;1.60;1.50;;;;;24.60;100594.00;;;;2074688;28;20214;-51
2022/07/03 04:30:33;;;;;;;2.63;1.67;;;;;24.60;100593.00;;;;2070839;28;20229;-51
2022/07/03 04:31:34;;;;;;;2.00;1.50;;;;;24.60;100588.00;;;;2070515;28;20225;-50
2022/07/03 04:32:34;;;;;;;3.13;1.60;;;;;24.60;100597.00;;;;2070019;28;20222;-49
2022/07/03 04:33:34;;;;;;;1.87;1.40;;;;;24.60;100600.00;;;;2070025;28;20768;-51
2022/07/03 04:34:35;;;;;;;2.70;1.70;;;;;24.60;100596.00;;;;2070670;28;20697;-50
2022/07/03 04:35:35;;;;;;;2.70;1.40;;;;;24.60;100616.00;;;;2070657;28;20698;-50
2022/07/03 04:36:35;;;;;;;1.83;1.50;;;;;24.60;100605.00;;;;2070744;28;20670;-49
2022/07/03 04:37:36;;;;;;;1.83;1.40;;;;;24.60;100606.00;;;;2069983;28;20218;-50
2022/07/03 04:38:36;;;;;;;2.13;1.43;;;;;24.60;100608.00;;;;2070695;28;20210;-51
2022/07/03 04:39:37;;;;;;;1.97;1.50;;;;;24.60;100594.00;;;;2070958;28;20218;-50
2022/07/03 04:40:37;;;;;;;1.73;1.43;;;;;24.60;100601.00;;;;2070834;28;20261;-49
2022/07/03 04:41:37;;;;;;;1.77;1.50;;;;;24.60;100604.00;;;;2078891;28;20224;-50
2022/07/03 04:42:38;;;;;;;1.70;1.60;;;;;24.60;100592.00;;;;2078781;28;20652;-49
2022/07/03 04:43:38;;;;;;;1.67;1.57;;;;;24.60;100602.00;;;;2078744;28;20241;-49
2022/07/03 04:44:38;;;;;;;1.73;1.40;;;;;24.60;100599.00;;;;2078610;28;20213;-49
2022/07/03 04:45:39;;;;;;;4.40;1.80;;;;;24.60;100598.00;;;;2079113;28;20367;-49
2022/07/03 04:46:40;;;;;;;2.27;1.40;;;;;24.60;100603.00;;;;2078905;28;20217;-50
2022/07/03 04:47:40;;;;;;;2.55;1.52;;;;;24.60;100603.00;;;;2077968;28;20209;-49
2022/07/03 04:48:40;;;;;;;2.83;1.63;;;;;24.60;100600.00;;;;2079225;28;20264;-49
2022/07/03 04:49:41;;;;;;;2.30;1.60;;;;;24.60;100611.00;;;;2078110;28;20210;-49
2022/07/03 04:50:41;;;;;;;1.83;1.57;;;;;24.60;100603.00;;;;2078263;28;20290;-49
2022/07/03 04:51:42;;;;;;;3.23;1.70;;;;;24.60;100607.00;;;;2079223;28;20272;-50
2022/07/03 04:52:42;;;;;;;2.03;1.60;;;;;24.60;100599.00;;;;2078992;28;20244;-49
2022/07/03 04:53:42;;;;;;;1.70;1.60;;;;;24.50;100601.00;;;;2078663;28;20276;-49
2022/07/03 04:54:43;;;;;;;2.23;1.60;;;;;24.50;100606.00;;;;2070542;28;20222;-49
2022/07/03 04:55:43;;;;;;;2.03;1.60;;;;;24.60;100607.00;;;;2070579;28;20241;-49
2022/07/03 04:56:43;;;;;;;1.77;1.60;;;;;24.60;100610.00;;;;2071157;28;20242;-50
2022/07/03 04:57:44;;;;;;;2.40;1.63;;;;;24.60;100612.00;;;;2069747;28;20259;-49
2022/07/03 04:58:45;;;;;;;3.13;1.80;;;;;24.30;100625.00;;;;2070711;28;20206;-49
2022/07/03 04:59:46;;;;;;;1.40;1.30;;;;;24.60;100627.00;;;;2071108;28;20229;-49
2022/07/03 05:00:46;;;;;;;1.77;1.60;;;;;24.60;100620.00;;;;2070552;28;20214;-50
2022/07/03 05:01:49;;;;;;;3.00;1.67;;;;;24.60;100624.00;;;;2070373;28;20246;-50
2022/07/03 05:02:49;;;;;;;2.28;1.73;;;;;24.60;100616.00;;;;2067811;28;20325;-49
2022/07/03 05:03:50;;;;;;;1.47;1.30;;;;;24.60;100616.00;;;;2071179;28;20214;-53
2022/07/03 05:04:50;;;;;;;2.40;1.63;;;;;24.60;100611.00;;;;2072984;28;20318;-50
2022/07/03 05:05:52;;;;;;;3.33;1.70;;;;;24.60;100612.00;;;;2078733;28;20237;-48
2022/07/03 05:06:52;;;;;;;1.95;1.50;;;;;24.60;100619.00;;;;2069853;28;20218;-50
2022/07/03 05:07:52;;;;;;;2.00;1.50;;;;;24.60;100624.00;;;;2065497;28;20205;-49
2022/07/03 05:08:53;;;;;;;2.00;1.47;;;;;24.60;100625.00;;;;2077717;28;20272;-50
2022/07/03 05:09:53;;;;;;;2.20;1.50;;;;;24.60;100622.00;;;;2076037;28;20214;-50
2022/07/03 05:10:53;;;;;;;2.50;2.10;;;;;24.60;100629.00;;;;2074998;28;20202;-50
2022/07/03 05:11:54;;;;;;;2.47;1.70;;;;;24.60;100624.00;;;;2078988;28;20213;-49
2022/07/03 05:12:54;;;;;;;1.70;1.60;;;;;24.60;100619.00;;;;2078437;28;20573;-50
2022/07/03 05:13:54;;;;;;;3.33;2.03;;;;;24.60;100621.00;;;;2078690;28;20723;-50
2022/07/03 05:14:55;;;;;;;2.80;1.40;;;;;24.60;100621.00;;;;2074850;28;20338;-50